sensor_id;sensor_type;location;lat;lon;timestamp;P1;durP1;ratioP1;P2;durP2;ratioP2
49800;SDS011;35698;50.232;30.540;2023-03-30T00:01:08;3.30;;;2.05;;
49800;SDS011;35698;50.232;30.540;2023-03-30T00:02:13;3.05;;;2.41;;
49800;SDS011;35698;50.232;30.540;2023-03-30T00:03:34;1.97;;;1.80;;
49800;SDS011;35698;50.232;30.540;2023-03-30T00:04:38;2.65;;;1.77;;
49800;SDS011;35698;50.232;30.540;2023-03-30T00:05:49;4.81;;;2.28;;
49800;SDS011;35698;50.232;30.540;2023-03-30T00:06:53;2.76;;;1.92;;
49800;SDS011;35698;50.232;30.540;2023-03-30T00:08:15;3.78;;;2.06;;
49800;SDS011;35698;50.232;30.540;2023-03-30T00:09:27;2.99;;;1.88;;
49800;SDS011;35698;50.232;30.540;2023-03-30T00:10:31;3.56;;;2.11;;
49800;SDS011;35698;50.232;30.540;2023-03-30T00:11:53;2.83;;;2.23;;
49800;SDS011;35698;50.232;30.540;2023-03-30T00:15:40;4.54;;;2.62;;
49800;SDS011;35698;50.232;30.540;2023-03-30T00:18:06;4.10;;;2.26;;
49800;SDS011;35698;50.232;30.540;2023-03-30T00:19:18;2.48;;;2.28;;
49800;SDS011;35698;50.232;30.540;2023-03-30T00:20:21;2.56;;;1.99;;
49800;SDS011;35698;50.232;30.540;2023-03-30T00:21:26;2.79;;;1.88;;
49800;SDS011;35698;50.232;30.540;2023-03-30T00:24:00;2.00;;;1.73;;
49800;SDS011;35698;50.232;30.540;2023-03-30T00:25:05;2.94;;;2.06;;
49800;SDS011;35698;50.232;30.540;2023-03-30T00:26:18;3.19;;;2.12;;
49800;SDS011;35698;50.232;30.540;2023-03-30T00:27:21;3.11;;;1.91;;
49800;SDS011;35698;50.232;30.540;2023-03-30T00:28:25;2.69;;;1.81;;
49800;SDS011;35698;50.232;30.540;2023-03-30T00:29:37;2.99;;;1.77;;
49800;SDS011;35698;50.232;30.540;2023-03-30T00:30:40;2.94;;;2.15;;
49800;SDS011;35698;50.232;30.540;2023-03-30T00:33:10;2.15;;;1.84;;
49800;SDS011;35698;50.232;30.540;2023-03-30T00:34:26;3.37;;;2.22;;
49800;SDS011;35698;50.232;30.540;2023-03-30T00:35:30;3.25;;;2.23;;
49800;SDS011;35698;50.232;30.540;2023-03-30T00:36:42;4.07;;;2.21;;
49800;SDS011;35698;50.232;30.540;2023-03-30T00:37:45;3.27;;;2.09;;
49800;SDS011;35698;50.232;30.540;2023-03-30T00:39:00;2.48;;;2.09;;
49800;SDS011;35698;50.232;30.540;2023-03-30T00:40:04;2.60;;;1.82;;
49800;SDS011;35698;50.232;30.540;2023-03-30T00:41:18;3.01;;;2.29;;
49800;SDS011;35698;50.232;30.540;2023-03-30T00:42:22;2.68;;;2.14;;
49800;SDS011;35698;50.232;30.540;2023-03-30T00:43:27;2.02;;;1.81;;
49800;SDS011;35698;50.232;30.540;2023-03-30T00:46:25;2.57;;;2.08;;
49800;SDS011;35698;50.232;30.540;2023-03-30T00:47:32;3.03;;;2.28;;
49800;SDS011;35698;50.232;30.540;2023-03-30T00:48:45;2.66;;;2.22;;
49800;SDS011;35698;50.232;30.540;2023-03-30T00:49:49;2.84;;;2.04;;
49800;SDS011;35698;50.232;30.540;2023-03-30T00:51:02;2.71;;;2.10;;
49800;SDS011;35698;50.232;30.540;2023-03-30T00:52:11;3.56;;;2.11;;
49800;SDS011;35698;50.232;30.540;2023-03-30T00:54:38;4.68;;;2.05;;
49800;SDS011;35698;50.232;30.540;2023-03-30T00:55:57;3.29;;;2.18;;
49800;SDS011;35698;50.232;30.540;2023-03-30T00:57:02;3.72;;;2.32;;
49800;SDS011;35698;50.232;30.540;2023-03-30T00:58:16;4.09;;;2.33;;
49800;SDS011;35698;50.232;30.540;2023-03-30T00:59:30;2.85;;;2.00;;
49800;SDS011;35698;50.232;30.540;2023-03-30T01:00:53;3.98;;;2.26;;
49800;SDS011;35698;50.232;30.540;2023-03-30T01:01:59;5.18;;;2.68;;
49800;SDS011;35698;50.232;30.540;2023-03-30T01:03:08;2.95;;;1.73;;
49800;SDS011;35698;50.232;30.540;2023-03-30T01:04:20;3.17;;;2.27;;
49800;SDS011;35698;50.232;30.540;2023-03-30T01:05:34;3.13;;;2.35;;
49800;SDS011;35698;50.232;30.540;2023-03-30T01:06:42;3.67;;;1.86;;
49800;SDS011;35698;50.232;30.540;2023-03-30T01:07:47;3.36;;;2.19;;
49800;SDS011;35698;50.232;30.540;2023-03-30T01:09:01;2.19;;;1.99;;
49800;SDS011;35698;50.232;30.540;2023-03-30T01:10:08;2.48;;;2.01;;
49800;SDS011;35698;50.232;30.540;2023-03-30T01:11:20;2.69;;;2.17;;
49800;SDS011;35698;50.232;30.540;2023-03-30T01:12:23;2.72;;;2.12;;
49800;SDS011;35698;50.232;30.540;2023-03-30T01:22:39;2.86;;;2.02;;
49800;SDS011;35698;50.232;30.540;2023-03-30T01:25:32;3.62;;;2.01;;
49800;SDS011;35698;50.232;30.540;2023-03-30T01:37:37;3.97;;;2.33;;
49800;SDS011;35698;50.232;30.540;2023-03-30T01:39:06;3.11;;;2.37;;
49800;SDS011;35698;50.232;30.540;2023-03-30T01:40:26;3.67;;;2.24;;
49800;SDS011;35698;50.232;30.540;2023-03-30T01:44:14;6.27;;;3.32;;
49800;SDS011;35698;50.232;30.540;2023-03-30T01:45:44;3.07;;;2.25;;
49800;SDS011;35698;50.232;30.540;2023-03-30T01:46:51;3.54;;;2.33;;
49800;SDS011;35698;50.232;30.540;2023-03-30T01:48:24;2.54;;;2.18;;
49800;SDS011;35698;50.232;30.540;2023-03-30T01:51:11;2.39;;;1.97;;
49800;SDS011;35698;50.232;30.540;2023-03-30T01:52:36;3.29;;;1.97;;
49800;SDS011;35698;50.232;30.540;2023-03-30T01:53:52;3.84;;;2.33;;
49800;SDS011;35698;50.232;30.540;2023-03-30T01:57:03;6.34;;;2.28;;
49800;SDS011;35698;50.232;30.540;2023-03-30T01:58:16;3.39;;;2.21;;
49800;SDS011;35698;50.232;30.540;2023-03-30T02:01:25;3.05;;;2.58;;
49800;SDS011;35698;50.232;30.540;2023-03-30T02:03:03;2.85;;;2.19;;
49800;SDS011;35698;50.232;30.540;2023-03-30T02:04:25;4.83;;;2.28;;
49800;SDS011;35698;50.232;30.540;2023-03-30T02:05:45;4.16;;;2.07;;
49800;SDS011;35698;50.232;30.540;2023-03-30T02:07:03;2.64;;;1.80;;
49800;SDS011;35698;50.232;30.540;2023-03-30T02:08:19;2.82;;;2.06;;
49800;SDS011;35698;50.232;30.540;2023-03-30T02:09:27;3.27;;;2.35;;
49800;SDS011;35698;50.232;30.540;2023-03-30T02:10:58;2.40;;;1.86;;
49800;SDS011;35698;50.232;30.540;2023-03-30T02:12:03;3.88;;;2.12;;
49800;SDS011;35698;50.232;30.540;2023-03-30T02:13:26;3.23;;;2.34;;
49800;SDS011;35698;50.232;30.540;2023-03-30T02:14:33;2.42;;;2.02;;
49800;SDS011;35698;50.232;30.540;2023-03-30T02:15:50;4.37;;;1.96;;
49800;SDS011;35698;50.232;30.540;2023-03-30T02:17:00;4.58;;;2.48;;
49800;SDS011;35698;50.232;30.540;2023-03-30T02:18:43;2.26;;;1.77;;
49800;SDS011;35698;50.232;30.540;2023-03-30T02:20:01;2.09;;;1.92;;
49800;SDS011;35698;50.232;30.540;2023-03-30T02:21:06;3.19;;;2.42;;
49800;SDS011;35698;50.232;30.540;2023-03-30T02:22:12;3.21;;;2.27;;
49800;SDS011;35698;50.232;30.540;2023-03-30T02:23:34;3.04;;;2.21;;
49800;SDS011;35698;50.232;30.540;2023-03-30T02:24:43;3.02;;;2.19;;
49800;SDS011;35698;50.232;30.540;2023-03-30T02:26:15;2.78;;;1.68;;
49800;SDS011;35698;50.232;30.540;2023-03-30T02:27:20;2.18;;;1.81;;
49800;SDS011;35698;50.232;30.540;2023-03-30T02:28:35;3.48;;;1.99;;
49800;SDS011;35698;50.232;30.540;2023-03-30T02:29:43;5.02;;;2.50;;
49800;SDS011;35698;50.232;30.540;2023-03-30T02:30:59;2.91;;;1.92;;
49800;SDS011;35698;50.232;30.540;2023-03-30T02:32:12;2.63;;;2.10;;
49800;SDS011;35698;50.232;30.540;2023-03-30T02:33:40;2.59;;;1.82;;
49800;SDS011;35698;50.232;30.540;2023-03-30T02:36:53;3.17;;;2.09;;
49800;SDS011;35698;50.232;30.540;2023-03-30T02:47:00;3.68;;;2.17;;
49800;SDS011;35698;50.232;30.540;2023-03-30T02:48:22;4.63;;;2.13;;
49800;SDS011;35698;50.232;30.540;2023-03-30T02:52:58;2.47;;;1.63;;
49800;SDS011;35698;50.232;30.540;2023-03-30T02:55:08;2.31;;;1.83;;
49800;SDS011;35698;50.232;30.540;2023-03-30T02:58:25;4.19;;;2.33;;
49800;SDS011;35698;50.232;30.540;2023-03-30T03:10:27;3.88;;;2.28;;
49800;SDS011;35698;50.232;30.540;2023-03-30T03:11:47;2.86;;;1.63;;
49800;SDS011;35698;50.232;30.540;2023-03-30T03:13:19;2.46;;;1.85;;
49800;SDS011;35698;50.232;30.540;2023-03-30T03:17:33;3.26;;;2.14;;
49800;SDS011;35698;50.232;30.540;2023-03-30T03:18:56;3.36;;;2.22;;
49800;SDS011;35698;50.232;30.540;2023-03-30T03:21:32;2.65;;;2.21;;
49800;SDS011;35698;50.232;30.540;2023-03-30T03:22:38;4.21;;;2.44;;
49800;SDS011;35698;50.232;30.540;2023-03-30T03:23:52;2.73;;;2.22;;
49800;SDS011;35698;50.232;30.540;2023-03-30T03:24:58;4.11;;;2.29;;
49800;SDS011;35698;50.232;30.540;2023-03-30T03:26:20;4.52;;;2.71;;
49800;SDS011;35698;50.232;30.540;2023-03-30T03:27:50;2.74;;;2.52;;
49800;SDS011;35698;50.232;30.540;2023-03-30T03:29:08;2.24;;;1.82;;
49800;SDS011;35698;50.232;30.540;2023-03-30T03:30:23;3.42;;;2.01;;
49800;SDS011;35698;50.232;30.540;2023-03-30T03:32:01;4.08;;;2.45;;
49800;SDS011;35698;50.232;30.540;2023-03-30T03:33:19;4.11;;;2.53;;
49800;SDS011;35698;50.232;30.540;2023-03-30T03:34:42;3.32;;;2.51;;
49800;SDS011;35698;50.232;30.540;2023-03-30T03:36:03;3.36;;;2.42;;
49800;SDS011;35698;50.232;30.540;2023-03-30T03:37:18;4.68;;;3.25;;
49800;SDS011;35698;50.232;30.540;2023-03-30T03:38:26;3.90;;;2.57;;
49800;SDS011;35698;50.232;30.540;2023-03-30T03:39:51;7.58;;;2.71;;
49800;SDS011;35698;50.232;30.540;2023-03-30T03:47:53;3.16;;;2.11;;
49800;SDS011;35698;50.232;30.540;2023-03-30T03:49:18;4.63;;;2.61;;
49800;SDS011;35698;50.232;30.540;2023-03-30T03:50:51;3.58;;;2.19;;
49800;SDS011;35698;50.232;30.540;2023-03-30T03:52:14;3.64;;;2.64;;
49800;SDS011;35698;50.232;30.540;2023-03-30T03:55:17;5.13;;;2.26;;
49800;SDS011;35698;50.232;30.540;2023-03-30T03:58:52;3.23;;;2.15;;
49800;SDS011;35698;50.232;30.540;2023-03-30T04:00:14;3.07;;;2.36;;
49800;SDS011;35698;50.232;30.540;2023-03-30T04:01:20;9.96;;;2.98;;
49800;SDS011;35698;50.232;30.540;2023-03-30T04:29:51;4.96;;;2.81;;
49800;SDS011;35698;50.232;30.540;2023-03-30T04:31:09;4.99;;;2.61;;
49800;SDS011;35698;50.232;30.540;2023-03-30T04:32:15;3.58;;;2.72;;
49800;SDS011;35698;50.232;30.540;2023-03-30T04:33:32;5.08;;;2.79;;
49800;SDS011;35698;50.232;30.540;2023-03-30T04:34:36;5.41;;;2.47;;
49800;SDS011;35698;50.232;30.540;2023-03-30T04:49:10;4.94;;;2.99;;
49800;SDS011;35698;50.232;30.540;2023-03-30T04:51:01;3.61;;;2.97;;
49800;SDS011;35698;50.232;30.540;2023-03-30T04:52:26;4.38;;;3.09;;
49800;SDS011;35698;50.232;30.540;2023-03-30T04:53:32;4.87;;;2.60;;
49800;SDS011;35698;50.232;30.540;2023-03-30T04:54:35;4.41;;;2.82;;
49800;SDS011;35698;50.232;30.540;2023-03-30T04:57:24;5.12;;;3.19;;
49800;SDS011;35698;50.232;30.540;2023-03-30T04:58:31;5.34;;;3.03;;
49800;SDS011;35698;50.232;30.540;2023-03-30T04:59:49;4.72;;;2.87;;
49800;SDS011;35698;50.232;30.540;2023-03-30T05:00:54;5.35;;;3.22;;
49800;SDS011;35698;50.232;30.540;2023-03-30T05:03:49;5.22;;;2.77;;
49800;SDS011;35698;50.232;30.540;2023-03-30T05:15:57;4.06;;;2.52;;
49800;SDS011;35698;50.232;30.540;2023-03-30T05:17:14;5.36;;;2.68;;
49800;SDS011;35698;50.232;30.540;2023-03-30T05:18:36;3.99;;;2.68;;
49800;SDS011;35698;50.232;30.540;2023-03-30T05:20:07;4.18;;;2.66;;
49800;SDS011;35698;50.232;30.540;2023-03-30T05:21:31;4.00;;;2.63;;
49800;SDS011;35698;50.232;30.540;2023-03-30T05:22:53;4.84;;;3.02;;
49800;SDS011;35698;50.232;30.540;2023-03-30T05:24:15;5.12;;;3.19;;
49800;SDS011;35698;50.232;30.540;2023-03-30T05:25:39;4.44;;;2.77;;
49800;SDS011;35698;50.232;30.540;2023-03-30T05:26:57;5.71;;;3.35;;
49800;SDS011;35698;50.232;30.540;2023-03-30T05:28:31;5.57;;;2.70;;
49800;SDS011;35698;50.232;30.540;2023-03-30T05:41:44;3.03;;;2.27;;
49800;SDS011;35698;50.232;30.540;2023-03-30T05:43:06;4.78;;;2.36;;
49800;SDS011;35698;50.232;30.540;2023-03-30T05:44:19;8.05;;;2.81;;
49800;SDS011;35698;50.232;30.540;2023-03-30T05:45:41;4.11;;;2.94;;
49800;SDS011;35698;50.232;30.540;2023-03-30T05:48:13;5.16;;;2.89;;
49800;SDS011;35698;50.232;30.540;2023-03-30T05:49:16;3.93;;;2.84;;
49800;SDS011;35698;50.232;30.540;2023-03-30T05:50:29;5.32;;;3.07;;
49800;SDS011;35698;50.232;30.540;2023-03-30T05:51:36;4.82;;;3.30;;
49800;SDS011;35698;50.232;30.540;2023-03-30T05:52:51;5.31;;;3.52;;
49800;SDS011;35698;50.232;30.540;2023-03-30T05:54:26;7.69;;;4.28;;
49800;SDS011;35698;50.232;30.540;2023-03-30T05:55:50;6.21;;;3.66;;
49800;SDS011;35698;50.232;30.540;2023-03-30T05:57:21;5.38;;;4.48;;
49800;SDS011;35698;50.232;30.540;2023-03-30T05:58:32;5.67;;;3.53;;
49800;SDS011;35698;50.232;30.540;2023-03-30T06:00:11;5.19;;;3.44;;
49800;SDS011;35698;50.232;30.540;2023-03-30T06:01:36;6.81;;;3.78;;
49800;SDS011;35698;50.232;30.540;2023-03-30T06:02:42;5.35;;;3.76;;
49800;SDS011;35698;50.232;30.540;2023-03-30T06:03:56;6.89;;;3.94;;
49800;SDS011;35698;50.232;30.540;2023-03-30T06:05:01;6.21;;;3.45;;
49800;SDS011;35698;50.232;30.540;2023-03-30T06:06:15;7.79;;;4.33;;
49800;SDS011;35698;50.232;30.540;2023-03-30T06:07:21;4.49;;;3.83;;
49800;SDS011;35698;50.232;30.540;2023-03-30T06:08:35;5.91;;;4.16;;
49800;SDS011;35698;50.232;30.540;2023-03-30T06:09:48;7.08;;;4.36;;
49800;SDS011;35698;50.232;30.540;2023-03-30T06:10:53;5.62;;;4.16;;
49800;SDS011;35698;50.232;30.540;2023-03-30T06:12:14;5.59;;;3.66;;
49800;SDS011;35698;50.232;30.540;2023-03-30T06:13:18;6.81;;;3.64;;
49800;SDS011;35698;50.232;30.540;2023-03-30T06:14:30;7.76;;;4.15;;
49800;SDS011;35698;50.232;30.540;2023-03-30T06:15:34;5.13;;;3.57;;
49800;SDS011;35698;50.232;30.540;2023-03-30T06:16:45;6.88;;;3.91;;
49800;SDS011;35698;50.232;30.540;2023-03-30T06:17:49;5.69;;;3.94;;
49800;SDS011;35698;50.232;30.540;2023-03-30T06:19:03;6.16;;;3.99;;
49800;SDS011;35698;50.232;30.540;2023-03-30T06:20:07;5.63;;;3.95;;
49800;SDS011;35698;50.232;30.540;2023-03-30T06:21:19;7.48;;;4.73;;
49800;SDS011;35698;50.232;30.540;2023-03-30T06:22:23;5.69;;;4.02;;
49800;SDS011;35698;50.232;30.540;2023-03-30T06:23:39;4.99;;;3.79;;
49800;SDS011;35698;50.232;30.540;2023-03-30T06:24:43;4.64;;;3.85;;
49800;SDS011;35698;50.232;30.540;2023-03-30T06:25:56;6.24;;;4.44;;
49800;SDS011;35698;50.232;30.540;2023-03-30T06:27:13;5.32;;;3.91;;
49800;SDS011;35698;50.232;30.540;2023-03-30T06:28:18;5.16;;;3.41;;
49800;SDS011;35698;50.232;30.540;2023-03-30T06:29:34;5.17;;;4.05;;
49800;SDS011;35698;50.232;30.540;2023-03-30T06:30:40;4.52;;;3.82;;
49800;SDS011;35698;50.232;30.540;2023-03-30T06:31:58;8.56;;;5.96;;
49800;SDS011;35698;50.232;30.540;2023-03-30T06:33:04;8.62;;;4.02;;
49800;SDS011;35698;50.232;30.540;2023-03-30T06:34:26;6.77;;;4.17;;
49800;SDS011;35698;50.232;30.540;2023-03-30T06:35:37;6.26;;;3.36;;
49800;SDS011;35698;50.232;30.540;2023-03-30T06:36:40;5.57;;;4.07;;
49800;SDS011;35698;50.232;30.540;2023-03-30T06:38:03;5.57;;;3.57;;
49800;SDS011;35698;50.232;30.540;2023-03-30T06:39:14;5.93;;;4.28;;
49800;SDS011;35698;50.232;30.540;2023-03-30T06:40:29;9.99;;;4.25;;
49800;SDS011;35698;50.232;30.540;2023-03-30T06:41:52;6.17;;;4.03;;
49800;SDS011;35698;50.232;30.540;2023-03-30T06:43:12;5.70;;;4.51;;
49800;SDS011;35698;50.232;30.540;2023-03-30T06:44:23;5.79;;;3.88;;
49800;SDS011;35698;50.232;30.540;2023-03-30T06:47:04;8.43;;;4.21;;
49800;SDS011;35698;50.232;30.540;2023-03-30T06:48:08;6.69;;;4.29;;
49800;SDS011;35698;50.232;30.540;2023-03-30T06:51:02;4.50;;;3.48;;
49800;SDS011;35698;50.232;30.540;2023-03-30T06:52:06;4.77;;;3.46;;
49800;SDS011;35698;50.232;30.540;2023-03-30T06:53:28;5.52;;;4.24;;
49800;SDS011;35698;50.232;30.540;2023-03-30T06:54:43;6.26;;;4.17;;
49800;SDS011;35698;50.232;30.540;2023-03-30T06:55:50;5.91;;;3.40;;
49800;SDS011;35698;50.232;30.540;2023-03-30T06:57:14;6.11;;;3.54;;
49800;SDS011;35698;50.232;30.540;2023-03-30T06:58:26;5.38;;;3.59;;
49800;SDS011;35698;50.232;30.540;2023-03-30T06:59:30;6.46;;;3.76;;
49800;SDS011;35698;50.232;30.540;2023-03-30T07:00:52;6.22;;;4.21;;
49800;SDS011;35698;50.232;30.540;2023-03-30T07:02:04;4.99;;;3.81;;
49800;SDS011;35698;50.232;30.540;2023-03-30T07:03:08;4.64;;;3.49;;
49800;SDS011;35698;50.232;30.540;2023-03-30T07:04:19;4.75;;;3.30;;
49800;SDS011;35698;50.232;30.540;2023-03-30T07:05:23;6.11;;;3.27;;
49800;SDS011;35698;50.232;30.540;2023-03-30T07:06:35;4.63;;;3.01;;
49800;SDS011;35698;50.232;30.540;2023-03-30T07:07:53;5.12;;;2.99;;
49800;SDS011;35698;50.232;30.540;2023-03-30T07:08:57;4.21;;;3.07;;
49800;SDS011;35698;50.232;30.540;2023-03-30T07:10:09;7.44;;;3.69;;
49800;SDS011;35698;50.232;30.540;2023-03-30T07:11:13;6.21;;;3.57;;
49800;SDS011;35698;50.232;30.540;2023-03-30T07:12:25;4.74;;;3.27;;
49800;SDS011;35698;50.232;30.540;2023-03-30T07:13:35;4.53;;;3.08;;
49800;SDS011;35698;50.232;30.540;2023-03-30T07:14:46;5.12;;;3.55;;
49800;SDS011;35698;50.232;30.540;2023-03-30T07:15:50;6.46;;;3.53;;
49800;SDS011;35698;50.232;30.540;2023-03-30T07:17:01;3.62;;;3.07;;
49800;SDS011;35698;50.232;30.540;2023-03-30T07:18:05;3.44;;;2.76;;
49800;SDS011;35698;50.232;30.540;2023-03-30T07:19:16;4.55;;;3.11;;
49800;SDS011;35698;50.232;30.540;2023-03-30T07:20:20;5.23;;;3.29;;
49800;SDS011;35698;50.232;30.540;2023-03-30T07:21:32;9.13;;;3.98;;
49800;SDS011;35698;50.232;30.540;2023-03-30T07:22:36;4.22;;;3.19;;
49800;SDS011;35698;50.232;30.540;2023-03-30T07:23:48;4.41;;;3.66;;
49800;SDS011;35698;50.232;30.540;2023-03-30T07:25:02;5.13;;;3.34;;
49800;SDS011;35698;50.232;30.540;2023-03-30T07:26:10;4.36;;;3.06;;
49800;SDS011;35698;50.232;30.540;2023-03-30T07:27:37;4.91;;;3.42;;
49800;SDS011;35698;50.232;30.540;2023-03-30T07:28:56;8.25;;;4.63;;
49800;SDS011;35698;50.232;30.540;2023-03-30T07:30:02;4.20;;;3.29;;
49800;SDS011;35698;50.232;30.540;2023-03-30T07:31:16;4.78;;;3.09;;
49800;SDS011;35698;50.232;30.540;2023-03-30T07:32:19;3.07;;;2.61;;
49800;SDS011;35698;50.232;30.540;2023-03-30T07:35:08;3.77;;;2.48;;
49800;SDS011;35698;50.232;30.540;2023-03-30T07:36:21;6.53;;;2.80;;
49800;SDS011;35698;50.232;30.540;2023-03-30T07:37:27;3.37;;;2.37;;
49800;SDS011;35698;50.232;30.540;2023-03-30T07:38:35;3.14;;;2.65;;
49800;SDS011;35698;50.232;30.540;2023-03-30T07:39:52;4.42;;;2.63;;
49800;SDS011;35698;50.232;30.540;2023-03-30T07:41:03;4.06;;;2.84;;
49800;SDS011;35698;50.232;30.540;2023-03-30T07:43:36;6.30;;;2.27;;
49800;SDS011;35698;50.232;30.540;2023-03-30T07:44:40;3.52;;;2.50;;
49800;SDS011;35698;50.232;30.540;2023-03-30T07:47:07;4.07;;;2.57;;
49800;SDS011;35698;50.232;30.540;2023-03-30T07:48:19;2.35;;;1.98;;
49800;SDS011;35698;50.232;30.540;2023-03-30T07:49:23;3.96;;;2.13;;
49800;SDS011;35698;50.232;30.540;2023-03-30T07:50:35;2.82;;;2.29;;
49800;SDS011;35698;50.232;30.540;2023-03-30T07:51:40;2.42;;;2.11;;
49800;SDS011;35698;50.232;30.540;2023-03-30T07:52:45;2.80;;;2.32;;
49800;SDS011;35698;50.232;30.540;2023-03-30T07:53:57;3.34;;;2.22;;
49800;SDS011;35698;50.232;30.540;2023-03-30T07:55:02;3.93;;;2.60;;
49800;SDS011;35698;50.232;30.540;2023-03-30T07:56:17;2.65;;;2.15;;
49800;SDS011;35698;50.232;30.540;2023-03-30T07:58:42;3.52;;;2.12;;
49800;SDS011;35698;50.232;30.540;2023-03-30T07:59:53;2.25;;;1.95;;
49800;SDS011;35698;50.232;30.540;2023-03-30T08:00:58;3.52;;;2.22;;
49800;SDS011;35698;50.232;30.540;2023-03-30T08:02:13;3.61;;;3.01;;
49800;SDS011;35698;50.232;30.540;2023-03-30T08:03:17;4.27;;;2.24;;
49800;SDS011;35698;50.232;30.540;2023-03-30T08:04:39;6.09;;;3.59;;
49800;SDS011;35698;50.232;30.540;2023-03-30T08:05:51;2.29;;;1.96;;
49800;SDS011;35698;50.232;30.540;2023-03-30T08:06:59;3.79;;;2.43;;
49800;SDS011;35698;50.232;30.540;2023-03-30T08:08:22;5.24;;;2.53;;
49800;SDS011;35698;50.232;30.540;2023-03-30T08:09:33;5.29;;;2.35;;
49800;SDS011;35698;50.232;30.540;2023-03-30T08:10:41;3.21;;;2.51;;
49800;SDS011;35698;50.232;30.540;2023-03-30T08:12:04;5.85;;;2.60;;
49800;SDS011;35698;50.232;30.540;2023-03-30T08:13:16;2.92;;;2.49;;
49800;SDS011;35698;50.232;30.540;2023-03-30T08:14:22;3.59;;;2.33;;
49800;SDS011;35698;50.232;30.540;2023-03-30T08:15:43;3.77;;;2.67;;
49800;SDS011;35698;50.232;30.540;2023-03-30T08:16:55;3.69;;;2.39;;
49800;SDS011;35698;50.232;30.540;2023-03-30T08:17:59;3.72;;;2.73;;
49800;SDS011;35698;50.232;30.540;2023-03-30T08:19:21;2.88;;;2.34;;
49800;SDS011;35698;50.232;30.540;2023-03-30T08:20:37;4.35;;;2.32;;
49800;SDS011;35698;50.232;30.540;2023-03-30T08:21:44;5.01;;;2.49;;
49800;SDS011;35698;50.232;30.540;2023-03-30T08:23:07;4.18;;;2.81;;
49800;SDS011;35698;50.232;30.540;2023-03-30T08:24:12;4.34;;;2.71;;
49800;SDS011;35698;50.232;30.540;2023-03-30T08:25:23;6.73;;;3.01;;
49800;SDS011;35698;50.232;30.540;2023-03-30T08:26:27;3.05;;;2.46;;
49800;SDS011;35698;50.232;30.540;2023-03-30T08:27:48;4.61;;;2.37;;
49800;SDS011;35698;50.232;30.540;2023-03-30T08:29:03;4.53;;;3.20;;
49800;SDS011;35698;50.232;30.540;2023-03-30T08:30:07;4.29;;;2.68;;
49800;SDS011;35698;50.232;30.540;2023-03-30T08:31:30;3.62;;;2.52;;
49800;SDS011;35698;50.232;30.540;2023-03-30T08:32:45;4.08;;;3.01;;
49800;SDS011;35698;50.232;30.540;2023-03-30T08:33:49;5.61;;;3.55;;
49800;SDS011;35698;50.232;30.540;2023-03-30T08:35:04;4.76;;;2.96;;
49800;SDS011;35698;50.232;30.540;2023-03-30T08:36:10;5.36;;;3.19;;
49800;SDS011;35698;50.232;30.540;2023-03-30T08:38:40;5.54;;;2.84;;
49800;SDS011;35698;50.232;30.540;2023-03-30T08:39:51;3.99;;;3.27;;
49800;SDS011;35698;50.232;30.540;2023-03-30T09:03:39;4.42;;;2.01;;
49800;SDS011;35698;50.232;30.540;2023-03-30T09:10:38;3.94;;;2.74;;
49800;SDS011;35698;50.232;30.540;2023-03-30T09:12:04;6.01;;;2.45;;
49800;SDS011;35698;50.232;30.540;2023-03-30T09:13:12;6.69;;;2.41;;
49800;SDS011;35698;50.232;30.540;2023-03-30T09:15:56;3.78;;;2.62;;
49800;SDS011;35698;50.232;30.540;2023-03-30T09:17:25;3.01;;;2.21;;
49800;SDS011;35698;50.232;30.540;2023-03-30T09:18:39;4.08;;;3.01;;
49800;SDS011;35698;50.232;30.540;2023-03-30T09:19:54;2.67;;;2.39;;
49800;SDS011;35698;50.232;30.540;2023-03-30T09:21:01;3.81;;;2.19;;
49800;SDS011;35698;50.232;30.540;2023-03-30T09:22:39;4.44;;;2.45;;
49800;SDS011;35698;50.232;30.540;2023-03-30T09:23:53;3.56;;;2.16;;
49800;SDS011;35698;50.232;30.540;2023-03-30T09:24:59;3.24;;;2.58;;
49800;SDS011;35698;50.232;30.540;2023-03-30T09:27:41;3.70;;;2.38;;
49800;SDS011;35698;50.232;30.540;2023-03-30T09:29:14;3.46;;;2.27;;
49800;SDS011;35698;50.232;30.540;2023-03-30T09:30:33;2.71;;;2.03;;
49800;SDS011;35698;50.232;30.540;2023-03-30T09:31:48;4.96;;;2.06;;
49800;SDS011;35698;50.232;30.540;2023-03-30T09:33:10;2.63;;;2.27;;
49800;SDS011;35698;50.232;30.540;2023-03-30T09:34:44;2.75;;;2.18;;
49800;SDS011;35698;50.232;30.540;2023-03-30T09:36:25;5.39;;;2.47;;
49800;SDS011;35698;50.232;30.540;2023-03-30T09:37:46;2.29;;;1.88;;
49800;SDS011;35698;50.232;30.540;2023-03-30T09:38:53;2.88;;;1.91;;
49800;SDS011;35698;50.232;30.540;2023-03-30T09:40:26;3.64;;;2.21;;
49800;SDS011;35698;50.232;30.540;2023-03-30T09:41:34;4.43;;;2.17;;
49800;SDS011;35698;50.232;30.540;2023-03-30T09:42:50;3.43;;;2.01;;
49800;SDS011;35698;50.232;30.540;2023-03-30T09:44:12;3.12;;;1.96;;
49800;SDS011;35698;50.232;30.540;2023-03-30T09:46:38;3.41;;;2.32;;
49800;SDS011;35698;50.232;30.540;2023-03-30T09:47:42;6.48;;;2.15;;
49800;SDS011;35698;50.232;30.540;2023-03-30T09:48:53;5.88;;;2.39;;
49800;SDS011;35698;50.232;30.540;2023-03-30T09:50:03;3.47;;;2.04;;
49800;SDS011;35698;50.232;30.540;2023-03-30T09:51:22;4.41;;;2.10;;
49800;SDS011;35698;50.232;30.540;2023-03-30T09:52:28;2.44;;;1.81;;
49800;SDS011;35698;50.232;30.540;2023-03-30T09:53:42;3.54;;;2.15;;
49800;SDS011;35698;50.232;30.540;2023-03-30T09:54:48;4.44;;;2.04;;
49800;SDS011;35698;50.232;30.540;2023-03-30T09:59:20;1.76;;;1.53;;
49800;SDS011;35698;50.232;30.540;2023-03-30T10:02:28;2.17;;;1.66;;
49800;SDS011;35698;50.232;30.540;2023-03-30T10:03:41;3.92;;;1.83;;
49800;SDS011;35698;50.232;30.540;2023-03-30T10:05:04;3.21;;;1.88;;
49800;SDS011;35698;50.232;30.540;2023-03-30T10:06:16;10.83;;;3.45;;
49800;SDS011;35698;50.232;30.540;2023-03-30T10:07:39;3.21;;;1.97;;
49800;SDS011;35698;50.232;30.540;2023-03-30T10:08:52;5.64;;;2.19;;
49800;SDS011;35698;50.232;30.540;2023-03-30T10:10:26;5.26;;;1.87;;
49800;SDS011;35698;50.232;30.540;2023-03-30T10:11:53;3.26;;;1.85;;
49800;SDS011;35698;50.232;30.540;2023-03-30T10:13:16;3.94;;;1.99;;
49800;SDS011;35698;50.232;30.540;2023-03-30T10:14:35;4.94;;;2.04;;
49800;SDS011;35698;50.232;30.540;2023-03-30T10:16:02;5.46;;;3.03;;
49800;SDS011;35698;50.232;30.540;2023-03-30T10:17:17;5.54;;;2.16;;
49800;SDS011;35698;50.232;30.540;2023-03-30T10:18:42;3.18;;;1.72;;
49800;SDS011;35698;50.232;30.540;2023-03-30T10:20:21;2.87;;;1.89;;
49800;SDS011;35698;50.232;30.540;2023-03-30T10:21:36;3.14;;;1.84;;
49800;SDS011;35698;50.232;30.540;2023-03-30T10:22:53;3.33;;;1.91;;
49800;SDS011;35698;50.232;30.540;2023-03-30T10:25:31;3.46;;;2.16;;
49800;SDS011;35698;50.232;30.540;2023-03-30T10:26:56;3.67;;;1.79;;
49800;SDS011;35698;50.232;30.540;2023-03-30T10:28:24;3.73;;;1.78;;
49800;SDS011;35698;50.232;30.540;2023-03-30T10:29:30;3.19;;;1.71;;
49800;SDS011;35698;50.232;30.540;2023-03-30T10:31:12;4.01;;;1.83;;
49800;SDS011;35698;50.232;30.540;2023-03-30T10:32:17;3.44;;;1.99;;
49800;SDS011;35698;50.232;30.540;2023-03-30T10:33:36;4.62;;;2.27;;
49800;SDS011;35698;50.232;30.540;2023-03-30T10:34:54;5.56;;;2.31;;
49800;SDS011;35698;50.232;30.540;2023-03-30T10:36:18;2.56;;;1.82;;
49800;SDS011;35698;50.232;30.540;2023-03-30T10:37:34;3.28;;;1.91;;
49800;SDS011;35698;50.232;30.540;2023-03-30T10:38:54;3.26;;;1.65;;
49800;SDS011;35698;50.232;30.540;2023-03-30T10:40:31;2.47;;;1.68;;
49800;SDS011;35698;50.232;30.540;2023-03-30T10:41:59;3.84;;;2.12;;